sensor_id;sensor_type;location;lat;lon;timestamp;temperature;humidity
76567;DHT22;65428;53.194;6.132;2023-12-04T00:00:06;0.90;99.90
76567;DHT22;65428;53.194;6.132;2023-12-04T00:02:33;0.80;99.90
76567;DHT22;65428;53.194;6.132;2023-12-04T00:04:59;1.00;99.90
76567;DHT22;65428;53.194;6.132;2023-12-04T00:07:25;0.90;99.90
76567;DHT22;65428;53.194;6.132;2023-12-04T00:09:50;0.80;99.90
76567;DHT22;65428;53.194;6.132;2023-12-04T00:12:16;1.00;99.90
76567;DHT22;65428;53.194;6.132;2023-12-04T00:14:42;0.90;99.90
76567;DHT22;65428;53.194;6.132;2023-12-04T00:17:07;0.80;99.90
76567;DHT22;65428;53.194;6.132;2023-12-04T00:19:33;1.00;99.90
76567;DHT22;65428;53.194;6.132;2023-12-04T00:21:59;0.80;99.90
76567;DHT22;65428;53.194;6.132;2023-12-04T00:24:24;0.90;99.90
76567;DHT22;65428;53.194;6.132;2023-12-04T00:26:52;0.90;99.90
76567;DHT22;65428;53.194;6.132;2023-12-04T00:29:18;1.00;99.90
76567;DHT22;65428;53.194;6.132;2023-12-04T00:31:43;0.80;99.90
76567;DHT22;65428;53.194;6.132;2023-12-04T00:34:09;0.80;99.90
76567;DHT22;65428;53.194;6.132;2023-12-04T00:36:38;1.00;99.90
76567;DHT22;65428;53.194;6.132;2023-12-04T00:39:03;0.80;99.90
76567;DHT22;65428;53.194;6.132;2023-12-04T00:41:29;1.10;99.90
76567;DHT22;65428;53.194;6.132;2023-12-04T00:43:55;1.00;99.90
76567;DHT22;65428;53.194;6.132;2023-12-04T00:46:21;0.80;99.90
76567;DHT22;65428;53.194;6.132;2023-12-04T00:48:46;0.80;99.90
76567;DHT22;65428;53.194;6.132;2023-12-04T00:51:12;0.90;99.90
76567;DHT22;65428;53.194;6.132;2023-12-04T00:53:38;0.80;99.90
76567;DHT22;65428;53.194;6.132;2023-12-04T00:56:04;1.30;99.90
76567;DHT22;65428;53.194;6.132;2023-12-04T00:58:31;0.80;99.90
76567;DHT22;65428;53.194;6.132;2023-12-04T01:00:57;0.80;99.90
76567;DHT22;65428;53.194;6.132;2023-12-04T01:03:23;1.00;99.90
76567;DHT22;65428;53.194;6.132;2023-12-04T01:05:48;0.90;99.90
76567;DHT22;65428;53.194;6.132;2023-12-04T01:08:14;0.90;99.90
76567;DHT22;65428;53.194;6.132;2023-12-04T01:10:40;1.00;99.90
76567;DHT22;65428;53.194;6.132;2023-12-04T01:13:06;0.90;99.90
76567;DHT22;65428;53.194;6.132;2023-12-04T01:15:31;0.80;99.90
76567;DHT22;65428;53.194;6.132;2023-12-04T01:17:57;1.00;99.90
76567;DHT22;65428;53.194;6.132;2023-12-04T01:20:26;0.70;99.90
76567;DHT22;65428;53.194;6.132;2023-12-04T01:22:51;1.00;99.90
76567;DHT22;65428;53.194;6.132;2023-12-04T01:25:17;0.90;99.90
76567;DHT22;65428;53.194;6.132;2023-12-04T01:27:43;1.00;99.90
76567;DHT22;65428;53.194;6.132;2023-12-04T01:30:09;1.00;99.90
76567;DHT22;65428;53.194;6.132;2023-12-04T01:32:35;0.80;99.90
76567;DHT22;65428;53.194;6.132;2023-12-04T01:35:02;1.00;99.90
76567;DHT22;65428;53.194;6.132;2023-12-04T01:37:30;0.90;99.90
76567;DHT22;65428;53.194;6.132;2023-12-04T01:39:56;1.00;99.90
76567;DHT22;65428;53.194;6.132;2023-12-04T01:42:21;1.20;99.90
76567;DHT22;65428;53.194;6.132;2023-12-04T01:44:47;0.90;99.90
76567;DHT22;65428;53.194;6.132;2023-12-04T01:47:13;0.90;99.90
76567;DHT22;65428;53.194;6.132;2023-12-04T01:49:39;0.90;99.90
76567;DHT22;65428;53.194;6.132;2023-12-04T01:52:05;0.90;99.90
76567;DHT22;65428;53.194;6.132;2023-12-04T01:54:31;0.90;99.90
76567;DHT22;65428;53.194;6.132;2023-12-04T01:57:02;0.90;99.90
76567;DHT22;65428;53.194;6.132;2023-12-04T01:59:28;1.10;99.90
76567;DHT22;65428;53.194;6.132;2023-12-04T02:01:54;0.90;99.90
76567;DHT22;65428;53.194;6.132;2023-12-04T02:04:21;0.90;99.90
76567;DHT22;65428;53.194;6.132;2023-12-04T02:06:46;1.00;99.90
76567;DHT22;65428;53.194;6.132;2023-12-04T02:09:12;0.90;99.90
76567;DHT22;65428;53.194;6.132;2023-12-04T02:11:39;1.10;99.90
76567;DHT22;65428;53.194;6.132;2023-12-04T02:14:06;1.10;99.90
76567;DHT22;65428;53.194;6.132;2023-12-04T02:16:32;1.00;99.90
76567;DHT22;65428;53.194;6.132;2023-12-04T02:19:00;1.10;99.90
76567;DHT22;65428;53.194;6.132;2023-12-04T02:21:26;1.00;99.90
76567;DHT22;65428;53.194;6.132;2023-12-04T02:23:55;1.00;99.90
76567;DHT22;65428;53.194;6.132;2023-12-04T02:26:24;1.00;99.90
76567;DHT22;65428;53.194;6.132;2023-12-04T02:28:57;1.10;99.90
76567;DHT22;65428;53.194;6.132;2023-12-04T02:31:24;1.00;99.90
76567;DHT22;65428;53.194;6.132;2023-12-04T02:33:55;1.00;99.90
76567;DHT22;65428;53.194;6.132;2023-12-04T02:36:23;1.00;99.90
76567;DHT22;65428;53.194;6.132;2023-12-04T02:38:50;1.00;99.90
76567;DHT22;65428;53.194;6.132;2023-12-04T02:41:16;1.10;99.90
76567;DHT22;65428;53.194;6.132;2023-12-04T02:43:43;1.00;99.90
76567;DHT22;65428;53.194;6.132;2023-12-04T02:46:09;0.90;99.90
76567;DHT22;65428;53.194;6.132;2023-12-04T02:48:35;1.00;99.90
76567;DHT22;65428;53.194;6.132;2023-12-04T02:51:02;1.00;99.90
76567;DHT22;65428;53.194;6.132;2023-12-04T02:53:28;1.00;99.90
76567;DHT22;65428;53.194;6.132;2023-12-04T02:55:54;1.10;99.90
76567;DHT22;65428;53.194;6.132;2023-12-04T02:58:22;1.00;99.90
76567;DHT22;65428;53.194;6.132;2023-12-04T03:00:48;1.00;99.90
76567;DHT22;65428;53.194;6.132;2023-12-04T03:03:14;1.00;99.90
76567;DHT22;65428;53.194;6.132;2023-12-04T03:05:39;1.10;99.90
76567;DHT22;65428;53.194;6.132;2023-12-04T03:08:05;1.00;99.90
76567;DHT22;65428;53.194;6.132;2023-12-04T03:10:31;1.00;99.90
76567;DHT22;65428;53.194;6.132;2023-12-04T03:12:59;1.00;99.90
76567;DHT22;65428;53.194;6.132;2023-12-04T03:15:24;1.00;99.90
76567;DHT22;65428;53.194;6.132;2023-12-04T03:17:50;1.50;99.90
76567;DHT22;65428;53.194;6.132;2023-12-04T03:20:19;1.00;99.90
76567;DHT22;65428;53.194;6.132;2023-12-04T03:22:45;1.10;99.90
76567;DHT22;65428;53.194;6.132;2023-12-04T03:25:10;1.10;99.90
76567;DHT22;65428;53.194;6.132;2023-12-04T03:27:36;1.10;99.90
76567;DHT22;65428;53.194;6.132;2023-12-04T03:30:02;1.00;99.90
76567;DHT22;65428;53.194;6.132;2023-12-04T03:32:28;1.10;99.90
76567;DHT22;65428;53.194;6.132;2023-12-04T03:34:53;1.20;99.90
76567;DHT22;65428;53.194;6.132;2023-12-04T03:37:19;1.20;99.90
76567;DHT22;65428;53.194;6.132;2023-12-04T03:39:44;1.10;99.90
76567;DHT22;65428;53.194;6.132;2023-12-04T03:42:10;1.10;99.90
76567;DHT22;65428;53.194;6.132;2023-12-04T03:44:36;1.10;99.90
76567;DHT22;65428;53.194;6.132;2023-12-04T03:47:01;1.20;99.90
76567;DHT22;65428;53.194;6.132;2023-12-04T03:49:27;1.30;99.90
76567;DHT22;65428;53.194;6.132;2023-12-04T03:51:53;1.10;99.90
76567;DHT22;65428;53.194;6.132;2023-12-04T03:54:19;0.90;99.90
76567;DHT22;65428;53.194;6.132;2023-12-04T03:56:44;1.10;99.90
76567;DHT22;65428;53.194;6.132;2023-12-04T03:59:10;1.10;99.90
76567;DHT22;65428;53.194;6.132;2023-12-04T04:01:36;1.10;99.90
76567;DHT22;65428;53.194;6.132;2023-12-04T04:04:02;1.10;99.90
76567;DHT22;65428;53.194;6.132;2023-12-04T04:06:27;1.10;99.90
76567;DHT22;65428;53.194;6.132;2023-12-04T04:08:53;1.20;99.90
76567;DHT22;65428;53.194;6.132;2023-12-04T04:11:19;1.10;99.90
76567;DHT22;65428;53.194;6.132;2023-12-04T04:13:44;1.10;99.90
76567;DHT22;65428;53.194;6.132;2023-12-04T04:16:16;1.20;99.90
76567;DHT22;65428;53.194;6.132;2023-12-04T04:18:42;1.10;99.90
76567;DHT22;65428;53.194;6.132;2023-12-04T04:21:16;1.20;99.90
76567;DHT22;65428;53.194;6.132;2023-12-04T04:23:41;1.10;99.90
76567;DHT22;65428;53.194;6.132;2023-12-04T04:26:09;1.20;99.90
76567;DHT22;65428;53.194;6.132;2023-12-04T04:28:34;1.10;99.90
76567;DHT22;65428;53.194;6.132;2023-12-04T04:31:00;1.30;99.90
76567;DHT22;65428;53.194;6.132;2023-12-04T04:33:26;1.10;99.90
76567;DHT22;65428;53.194;6.132;2023-12-04T04:35:51;1.10;99.90
76567;DHT22;65428;53.194;6.132;2023-12-04T04:38:17;1.10;99.90
76567;DHT22;65428;53.194;6.132;2023-12-04T04:40:43;1.10;99.90
76567;DHT22;65428;53.194;6.132;2023-12-04T04:43:10;1.30;99.90
76567;DHT22;65428;53.194;6.132;2023-12-04T04:45:36;1.20;99.90
76567;DHT22;65428;53.194;6.132;2023-12-04T04:48:02;1.20;99.90
76567;DHT22;65428;53.194;6.132;2023-12-04T04:50:27;1.10;99.90
76567;DHT22;65428;53.194;6.132;2023-12-04T04:52:53;1.60;99.90
76567;DHT22;65428;53.194;6.132;2023-12-04T04:55:19;1.40;99.90
76567;DHT22;65428;53.194;6.132;2023-12-04T04:57:44;1.20;99.90
76567;DHT22;65428;53.194;6.132;2023-12-04T05:00:10;1.20;99.90
76567;DHT22;65428;53.194;6.132;2023-12-04T05:02:36;1.20;99.90
76567;DHT22;65428;53.194;6.132;2023-12-04T05:05:03;1.20;99.90
76567;DHT22;65428;53.194;6.132;2023-12-04T05:07:29;1.20;99.90
76567;DHT22;65428;53.194;6.132;2023-12-04T05:09:55;1.30;99.90
76567;DHT22;65428;53.194;6.132;2023-12-04T05:12:20;1.20;99.90
76567;DHT22;65428;53.194;6.132;2023-12-04T05:14:46;1.20;99.90
76567;DHT22;65428;53.194;6.132;2023-12-04T05:17:12;1.20;99.90
76567;DHT22;65428;53.194;6.132;2023-12-04T05:19:37;1.00;99.90
76567;DHT22;65428;53.194;6.132;2023-12-04T05:22:03;1.10;99.90
76567;DHT22;65428;53.194;6.132;2023-12-04T05:24:29;1.10;99.90
76567;DHT22;65428;53.194;6.132;2023-12-04T05:26:54;1.40;99.90
76567;DHT22;65428;53.194;6.132;2023-12-04T05:29:20;1.10;99.90
76567;DHT22;65428;53.194;6.132;2023-12-04T05:31:46;1.10;99.90
76567;DHT22;65428;53.194;6.132;2023-12-04T05:34:12;1.20;99.90
76567;DHT22;65428;53.194;6.132;2023-12-04T05:36:38;1.10;99.90
76567;DHT22;65428;53.194;6.132;2023-12-04T05:39:04;1.40;99.90
76567;DHT22;65428;53.194;6.132;2023-12-04T05:41:30;1.20;99.90
76567;DHT22;65428;53.194;6.132;2023-12-04T05:43:56;1.10;99.90
76567;DHT22;65428;53.194;6.132;2023-12-04T05:46:22;1.10;99.90
76567;DHT22;65428;53.194;6.132;2023-12-04T05:48:48;1.30;99.90
76567;DHT22;65428;53.194;6.132;2023-12-04T05:51:14;1.10;99.90
76567;DHT22;65428;53.194;6.132;2023-12-04T05:53:43;1.10;99.90
76567;DHT22;65428;53.194;6.132;2023-12-04T05:56:14;1.20;99.90
76567;DHT22;65428;53.194;6.132;2023-12-04T05:58:39;1.20;99.90
76567;DHT22;65428;53.194;6.132;2023-12-04T06:01:05;1.10;99.90
76567;DHT22;65428;53.194;6.132;2023-12-04T06:03:32;1.20;99.90
76567;DHT22;65428;53.194;6.132;2023-12-04T06:05:58;1.20;99.90
76567;DHT22;65428;53.194;6.132;2023-12-04T06:08:24;1.20;99.90
76567;DHT22;65428;53.194;6.132;2023-12-04T06:10:58;1.20;99.90
76567;DHT22;65428;53.194;6.132;2023-12-04T06:13:25;1.20;99.90
76567;DHT22;65428;53.194;6.132;2023-12-04T06:15:51;1.30;99.90
76567;DHT22;65428;53.194;6.132;2023-12-04T06:18:18;1.20;99.90
76567;DHT22;65428;53.194;6.132;2023-12-04T06:20:43;1.20;99.90
76567;DHT22;65428;53.194;6.132;2023-12-04T06:23:18;1.20;99.90
76567;DHT22;65428;53.194;6.132;2023-12-04T06:25:44;1.20;99.90
76567;DHT22;65428;53.194;6.132;2023-12-04T06:28:13;1.20;99.90
76567;DHT22;65428;53.194;6.132;2023-12-04T06:30:39;1.20;99.90
76567;DHT22;65428;53.194;6.132;2023-12-04T06:33:05;1.30;99.90
76567;DHT22;65428;53.194;6.132;2023-12-04T06:35:31;1.20;99.90
76567;DHT22;65428;53.194;6.132;2023-12-04T06:38:05;1.20;99.90
76567;DHT22;65428;53.194;6.132;2023-12-04T06:40:34;1.20;99.90
76567;DHT22;65428;53.194;6.132;2023-12-04T06:43:20;1.20;99.90
76567;DHT22;65428;53.194;6.132;2023-12-04T06:45:46;1.20;99.90
76567;DHT22;65428;53.194;6.132;2023-12-04T06:48:13;1.20;99.90
76567;DHT22;65428;53.194;6.132;2023-12-04T06:50:43;1.20;99.90
76567;DHT22;65428;53.194;6.132;2023-12-04T06:53:09;1.20;99.90
76567;DHT22;65428;53.194;6.132;2023-12-04T06:55:37;1.40;99.90
76567;DHT22;65428;53.194;6.132;2023-12-04T06:58:03;1.20;99.90
76567;DHT22;65428;53.194;6.132;2023-12-04T07:00:29;1.30;99.90
76567;DHT22;65428;53.194;6.132;2023-12-04T07:02:55;1.20;99.90
76567;DHT22;65428;53.194;6.132;2023-12-04T07:05:21;1.70;99.90
76567;DHT22;65428;53.194;6.132;2023-12-04T07:07:49;1.20;99.90
76567;DHT22;65428;53.194;6.132;2023-12-04T07:10:15;1.30;99.90
76567;DHT22;65428;53.194;6.132;2023-12-04T07:12:41;1.20;99.90
76567;DHT22;65428;53.194;6.132;2023-12-04T07:15:08;1.20;99.90
76567;DHT22;65428;53.194;6.132;2023-12-04T07:17:35;1.20;99.90
76567;DHT22;65428;53.194;6.132;2023-12-04T07:20:01;1.20;99.90
76567;DHT22;65428;53.194;6.132;2023-12-04T07:22:28;1.10;99.90
76567;DHT22;65428;53.194;6.132;2023-12-04T07:24:54;1.10;99.90
76567;DHT22;65428;53.194;6.132;2023-12-04T07:27:20;1.10;99.90
76567;DHT22;65428;53.194;6.132;2023-12-04T07:29:46;1.10;99.90
76567;DHT22;65428;53.194;6.132;2023-12-04T07:32:13;1.10;99.90
76567;DHT22;65428;53.194;6.132;2023-12-04T07:34:38;1.10;99.90
76567;DHT22;65428;53.194;6.132;2023-12-04T07:37:04;1.10;99.90
76567;DHT22;65428;53.194;6.132;2023-12-04T07:39:30;1.20;99.90
76567;DHT22;65428;53.194;6.132;2023-12-04T07:41:55;1.30;99.90
76567;DHT22;65428;53.194;6.132;2023-12-04T07:44:21;1.10;99.90
76567;DHT22;65428;53.194;6.132;2023-12-04T07:46:49;1.20;99.90
76567;DHT22;65428;53.194;6.132;2023-12-04T07:49:15;1.10;99.90
76567;DHT22;65428;53.194;6.132;2023-12-04T07:51:41;1.00;99.90
76567;DHT22;65428;53.194;6.132;2023-12-04T07:54:07;1.10;99.90
76567;DHT22;65428;53.194;6.132;2023-12-04T07:56:33;1.30;99.90
76567;DHT22;65428;53.194;6.132;2023-12-04T07:58:58;1.20;99.90
76567;DHT22;65428;53.194;6.132;2023-12-04T08:01:24;1.40;99.90
76567;DHT22;65428;53.194;6.132;2023-12-04T08:03:53;1.20;99.90
76567;DHT22;65428;53.194;6.132;2023-12-04T08:06:18;1.20;99.90
76567;DHT22;65428;53.194;6.132;2023-12-04T08:08:44;1.20;99.90
76567;DHT22;65428;53.194;6.132;2023-12-04T08:11:11;1.30;99.90
76567;DHT22;65428;53.194;6.132;2023-12-04T08:13:38;1.30;99.90
76567;DHT22;65428;53.194;6.132;2023-12-04T08:16:04;1.40;99.90
76567;DHT22;65428;53.194;6.132;2023-12-04T08:18:30;1.20;99.90
76567;DHT22;65428;53.194;6.132;2023-12-04T08:20:55;1.20;99.90
76567;DHT22;65428;53.194;6.132;2023-12-04T08:23:21;1.30;99.90
76567;DHT22;65428;53.194;6.132;2023-12-04T08:25:47;1.30;99.90
76567;DHT22;65428;53.194;6.132;2023-12-04T08:28:12;1.30;99.90
76567;DHT22;65428;53.194;6.132;2023-12-04T08:30:38;1.30;99.90
76567;DHT22;65428;53.194;6.132;2023-12-04T08:33:04;1.40;99.90
76567;DHT22;65428;53.194;6.132;2023-12-04T08:35:30;1.40;99.90
76567;DHT22;65428;53.194;6.132;2023-12-04T08:37:55;1.40;99.90
76567;DHT22;65428;53.194;6.132;2023-12-04T08:40:21;1.50;99.90
76567;DHT22;65428;53.194;6.132;2023-12-04T08:42:47;1.30;99.90
76567;DHT22;65428;53.194;6.132;2023-12-04T08:45:13;1.40;99.90
76567;DHT22;65428;53.194;6.132;2023-12-04T08:47:39;1.40;99.90
76567;DHT22;65428;53.194;6.132;2023-12-04T08:50:05;1.40;99.90
76567;DHT22;65428;53.194;6.132;2023-12-04T08:52:32;1.50;99.90
76567;DHT22;65428;53.194;6.132;2023-12-04T08:54:58;1.60;99.90
76567;DHT22;65428;53.194;6.132;2023-12-04T08:57:24;1.60;99.90
76567;DHT22;65428;53.194;6.132;2023-12-04T08:59:49;1.50;99.90
76567;DHT22;65428;53.194;6.132;2023-12-04T09:02:15;1.60;99.90
76567;DHT22;65428;53.194;6.132;2023-12-04T09:04:40;1.60;99.90
76567;DHT22;65428;53.194;6.132;2023-12-04T09:07:06;1.60;99.90
76567;DHT22;65428;53.194;6.132;2023-12-04T09:09:32;1.70;99.90
76567;DHT22;65428;53.194;6.132;2023-12-04T09:11:58;1.70;99.90
76567;DHT22;65428;53.194;6.132;2023-12-04T09:14:23;1.70;99.90
76567;DHT22;65428;53.194;6.132;2023-12-04T09:16:49;1.80;99.90
76567;DHT22;65428;53.194;6.132;2023-12-04T09:19:15;1.90;99.90
76567;DHT22;65428;53.194;6.132;2023-12-04T09:21:40;1.70;99.90
76567;DHT22;65428;53.194;6.132;2023-12-04T09:24:06;1.80;99.90
76567;DHT22;65428;53.194;6.132;2023-12-04T09:26:32;1.70;99.90
76567;DHT22;65428;53.194;6.132;2023-12-04T09:28:58;1.70;99.90
76567;DHT22;65428;53.194;6.132;2023-12-04T09:31:23;1.70;99.90
76567;DHT22;65428;53.194;6.132;2023-12-04T09:33:49;1.70;99.90
76567;DHT22;65428;53.194;6.132;2023-12-04T09:36:18;1.70;99.90
76567;DHT22;65428;53.194;6.132;2023-12-04T09:38:44;1.80;99.90
76567;DHT22;65428;53.194;6.132;2023-12-04T09:41:11;1.80;99.90
76567;DHT22;65428;53.194;6.132;2023-12-04T09:43:37;1.70;99.90
76567;DHT22;65428;53.194;6.132;2023-12-04T09:46:03;1.80;99.90
76567;DHT22;65428;53.194;6.132;2023-12-04T09:48:31;1.90;99.90
76567;DHT22;65428;53.194;6.132;2023-12-04T09:50:57;1.70;99.90
76567;DHT22;65428;53.194;6.132;2023-12-04T09:53:27;1.90;99.90
76567;DHT22;65428;53.194;6.132;2023-12-04T09:55:57;1.80;99.90
76567;DHT22;65428;53.194;6.132;2023-12-04T09:58:28;1.80;99.90
76567;DHT22;65428;53.194;6.132;2023-12-04T10:01:01;1.90;99.90
76567;DHT22;65428;53.194;6.132;2023-12-04T10:03:27;1.90;99.90
76567;DHT22;65428;53.194;6.132;2023-12-04T10:05:58;1.90;99.90
76567;DHT22;65428;53.194;6.132;2023-12-04T10:08:23;2.00;99.90
76567;DHT22;65428;53.194;6.132;2023-12-04T10:10:49;2.00;99.90
76567;DHT22;65428;53.194;6.132;2023-12-04T10:13:15;2.10;99.90
76567;DHT22;65428;53.194;6.132;2023-12-04T10:15:48;2.10;99.90
76567;DHT22;65428;53.194;6.132;2023-12-04T10:18:37;2.10;99.90
76567;DHT22;65428;53.194;6.132;2023-12-04T10:21:03;2.00;99.90
76567;DHT22;65428;53.194;6.132;2023-12-04T10:23:42;2.10;99.90
76567;DHT22;65428;53.194;6.132;2023-12-04T10:26:08;2.20;99.90
76567;DHT22;65428;53.194;6.132;2023-12-04T10:28:35;2.30;99.90
76567;DHT22;65428;53.194;6.132;2023-12-04T10:31:01;2.10;99.90
76567;DHT22;65428;53.194;6.132;2023-12-04T10:33:29;2.20;99.90
76567;DHT22;65428;53.194;6.132;2023-12-04T10:35:56;2.40;99.90
76567;DHT22;65428;53.194;6.132;2023-12-04T10:38:21;2.50;99.90
76567;DHT22;65428;53.194;6.132;2023-12-04T10:40:48;2.50;99.90
76567;DHT22;65428;53.194;6.132;2023-12-04T10:43:15;2.50;99.90
76567;DHT22;65428;53.194;6.132;2023-12-04T10:45:41;2.70;99.90
76567;DHT22;65428;53.194;6.132;2023-12-04T10:48:09;2.90;99.90
76567;DHT22;65428;53.194;6.132;2023-12-04T10:50:46;2.90;99.90
76567;DHT22;65428;53.194;6.132;2023-12-04T10:53:16;3.20;99.90
76567;DHT22;65428;53.194;6.132;2023-12-04T10:55:43;3.40;99.90
76567;DHT22;65428;53.194;6.132;2023-12-04T10:58:14;3.50;99.90
76567;DHT22;65428;53.194;6.132;2023-12-04T11:00:45;3.50;99.90
76567;DHT22;65428;53.194;6.132;2023-12-04T11:03:44;3.50;99.90
76567;DHT22;65428;53.194;6.132;2023-12-04T11:06:11;3.40;99.90
76567;DHT22;65428;53.194;6.132;2023-12-04T11:08:42;3.40;99.90
76567;DHT22;65428;53.194;6.132;2023-12-04T11:11:19;3.40;99.90
76567;DHT22;65428;53.194;6.132;2023-12-04T11:13:54;3.10;99.90
76567;DHT22;65428;53.194;6.132;2023-12-04T11:19:23;3.30;99.90
76567;DHT22;65428;53.194;6.132;2023-12-04T11:21:53;3.60;99.90
76567;DHT22;65428;53.194;6.132;2023-12-04T11:24:27;3.30;99.90
76567;DHT22;65428;53.194;6.132;2023-12-04T11:26:53;3.50;99.90
76567;DHT22;65428;53.194;6.132;2023-12-04T11:29:20;3.70;99.90
76567;DHT22;65428;53.194;6.132;2023-12-04T11:31:47;3.40;99.90
76567;DHT22;65428;53.194;6.132;2023-12-04T11:34:12;3.30;99.90
76567;DHT22;65428;53.194;6.132;2023-12-04T11:36:39;3.20;99.90
76567;DHT22;65428;53.194;6.132;2023-12-04T11:39:09;3.10;99.90
76567;DHT22;65428;53.194;6.132;2023-12-04T11:41:40;3.10;99.90
76567;DHT22;65428;53.194;6.132;2023-12-04T11:44:12;3.00;99.90
76567;DHT22;65428;53.194;6.132;2023-12-04T11:46:58;3.10;99.90
76567;DHT22;65428;53.194;6.132;2023-12-04T11:49:29;3.10;99.90
76567;DHT22;65428;53.194;6.132;2023-12-04T11:51:59;2.90;99.90
76567;DHT22;65428;53.194;6.132;2023-12-04T11:54:27;3.00;99.90
76567;DHT22;65428;53.194;6.132;2023-12-04T11:59:37;3.00;99.90
76567;DHT22;65428;53.194;6.132;2023-12-04T12:02:10;2.90;99.90
76567;DHT22;65428;53.194;6.132;2023-12-04T12:04:37;3.20;99.90
76567;DHT22;65428;53.194;6.132;2023-12-04T12:07:05;3.00;99.90
76567;DHT22;65428;53.194;6.132;2023-12-04T12:09:34;3.00;99.90
76567;DHT22;65428;53.194;6.132;2023-12-04T12:12:01;3.10;99.90
76567;DHT22;65428;53.194;6.132;2023-12-04T12:14:28;3.00;99.90
76567;DHT22;65428;53.194;6.132;2023-12-04T12:17:00;2.90;99.90
76567;DHT22;65428;53.194;6.132;2023-12-04T12:19:28;3.00;99.90
76567;DHT22;65428;53.194;6.132;2023-12-04T12:21:54;2.90;99.90
76567;DHT22;65428;53.194;6.132;2023-12-04T12:24:20;2.90;99.90
76567;DHT22;65428;53.194;6.132;2023-12-04T12:26:46;3.40;99.90
76567;DHT22;65428;53.194;6.132;2023-12-04T12:29:12;3.00;99.90
76567;DHT22;65428;53.194;6.132;2023-12-04T12:31:38;3.00;99.90
76567;DHT22;65428;53.194;6.132;2023-12-04T12:34:04;3.00;99.90
76567;DHT22;65428;53.194;6.132;2023-12-04T12:36:30;3.00;99.90
76567;DHT22;65428;53.194;6.132;2023-12-04T12:38:59;3.30;99.90
76567;DHT22;65428;53.194;6.132;2023-12-04T12:41:25;2.90;99.90
76567;DHT22;65428;53.194;6.132;2023-12-04T12:43:52;3.00;99.90
76567;DHT22;65428;53.194;6.132;2023-12-04T12:46:18;3.00;99.90
76567;DHT22;65428;53.194;6.132;2023-12-04T12:48:46;3.00;99.90
76567;DHT22;65428;53.194;6.132;2023-12-04T12:51:12;3.00;99.90
76567;DHT22;65428;53.194;6.132;2023-12-04T12:53:38;2.80;99.90
76567;DHT22;65428;53.194;6.132;2023-12-04T12:56:05;3.10;99.90
76567;DHT22;65428;53.194;6.132;2023-12-04T12:58:31;2.90;99.90
76567;DHT22;65428;53.194;6.132;2023-12-04T13:00:57;2.90;99.90
76567;DHT22;65428;53.194;6.132;2023-12-04T13:03:22;2.90;99.90
76567;DHT22;65428;53.194;6.132;2023-12-04T13:05:48;2.90;99.90
76567;DHT22;65428;53.194;6.132;2023-12-04T13:08:14;3.00;99.90
76567;DHT22;65428;53.194;6.132;2023-12-04T13:10:43;3.00;99.90
76567;DHT22;65428;53.194;6.132;2023-12-04T13:13:12;3.20;99.90
76567;DHT22;65428;53.194;6.132;2023-12-04T13:15:38;3.20;99.90
76567;DHT22;65428;53.194;6.132;2023-12-04T13:18:04;3.10;99.90
76567;DHT22;65428;53.194;6.132;2023-12-04T13:20:30;3.00;99.90
76567;DHT22;65428;53.194;6.132;2023-12-04T13:22:55;3.10;99.90
76567;DHT22;65428;53.194;6.132;2023-12-04T13:25:21;3.20;99.90
76567;DHT22;65428;53.194;6.132;2023-12-04T13:27:48;3.00;99.90
76567;DHT22;65428;53.194;6.132;2023-12-04T13:30:14;3.00;99.90
76567;DHT22;65428;53.194;6.132;2023-12-04T13:32:40;3.30;99.90
76567;DHT22;65428;53.194;6.132;2023-12-04T13:35:06;3.00;99.90
76567;DHT22;65428;53.194;6.132;2023-12-04T13:37:36;3.00;99.90
76567;DHT22;65428;53.194;6.132;2023-12-04T13:40:04;2.90;99.90
76567;DHT22;65428;53.194;6.132;2023-12-04T13:42:32;3.00;99.90
76567;DHT22;65428;53.194;6.132;2023-12-04T13:45:17;3.10;99.90
76567;DHT22;65428;53.194;6.132;2023-12-04T13:47:42;3.00;99.90
76567;DHT22;65428;53.194;6.132;2023-12-04T13:50:15;3.10;99.90
76567;DHT22;65428;53.194;6.132;2023-12-04T13:52:44;3.10;99.90
76567;DHT22;65428;53.194;6.132;2023-12-04T13:55:10;3.00;99.90
76567;DHT22;65428;53.194;6.132;2023-12-04T13:57:46;2.90;99.90
76567;DHT22;65428;53.194;6.132;2023-12-04T14:00:24;3.00;99.90
76567;DHT22;65428;53.194;6.132;2023-12-04T14:02:54;3.10;99.90
76567;DHT22;65428;53.194;6.132;2023-12-04T14:05:28;2.80;99.90
76567;DHT22;65428;53.194;6.132;2023-12-04T14:07:54;2.80;99.90
76567;DHT22;65428;53.194;6.132;2023-12-04T14:10:22;2.90;99.90
76567;DHT22;65428;53.194;6.132;2023-12-04T14:12:47;2.70;99.90
76567;DHT22;65428;53.194;6.132;2023-12-04T14:15:13;2.90;99.90
76567;DHT22;65428;53.194;6.132;2023-12-04T14:17:39;2.90;99.90
76567;DHT22;65428;53.194;6.132;2023-12-04T14:20:06;2.60;99.90
76567;DHT22;65428;53.194;6.132;2023-12-04T14:22:41;2.70;99.90
76567;DHT22;65428;53.194;6.132;2023-12-04T14:25:07;2.90;99.90
76567;DHT22;65428;53.194;6.132;2023-12-04T14:27:33;2.70;99.90
76567;DHT22;65428;53.194;6.132;2023-12-04T14:29:59;2.90;99.90
76567;DHT22;65428;53.194;6.132;2023-12-04T14:32:25;2.70;99.90
76567;DHT22;65428;53.194;6.132;2023-12-04T14:34:51;2.60;99.90
76567;DHT22;65428;53.194;6.132;2023-12-04T14:37:16;2.80;99.90
76567;DHT22;65428;53.194;6.132;2023-12-04T14:39:42;2.80;99.90
76567;DHT22;65428;53.194;6.132;2023-12-04T14:42:08;2.80;99.90
76567;DHT22;65428;53.194;6.132;2023-12-04T14:44:34;2.80;99.90
76567;DHT22;65428;53.194;6.132;2023-12-04T14:46:59;2.80;99.90
76567;DHT22;65428;53.194;6.132;2023-12-04T14:49:25;2.80;99.90
76567;DHT22;65428;53.194;6.132;2023-12-04T14:51:51;2.80;99.90
76567;DHT22;65428;53.194;6.132;2023-12-04T14:54:16;2.60;99.90
76567;DHT22;65428;53.194;6.132;2023-12-04T14:57:05;2.80;99.90
76567;DHT22;65428;53.194;6.132;2023-12-04T14:59:49;2.70;99.90
76567;DHT22;65428;53.194;6.132;2023-12-04T15:02:21;2.50;99.90
76567;DHT22;65428;53.194;6.132;2023-12-04T15:04:52;2.60;99.90
76567;DHT22;65428;53.194;6.132;2023-12-04T15:07:18;2.50;99.90
76567;DHT22;65428;53.194;6.132;2023-12-04T15:10:02;2.50;99.90
76567;DHT22;65428;53.194;6.132;2023-12-04T15:12:46;2.40;99.90
76567;DHT22;65428;53.194;6.132;2023-12-04T15:15:32;2.40;99.90
76567;DHT22;65428;53.194;6.132;2023-12-04T15:18:16;2.20;99.90
76567;DHT22;65428;53.194;6.132;2023-12-04T15:21:00;2.10;99.90
76567;DHT22;65428;53.194;6.132;2023-12-04T15:23:30;2.00;99.90
76567;DHT22;65428;53.194;6.132;2023-12-04T15:25:56;2.00;99.90
76567;DHT22;65428;53.194;6.132;2023-12-04T15:28:24;2.20;99.90
76567;DHT22;65428;53.194;6.132;2023-12-04T15:30:59;1.90;99.90
76567;DHT22;65428;53.194;6.132;2023-12-04T15:33:26;1.80;99.90
76567;DHT22;65428;53.194;6.132;2023-12-04T15:35:53;1.80;99.90
76567;DHT22;65428;53.194;6.132;2023-12-04T15:38:20;2.00;99.90
76567;DHT22;65428;53.194;6.132;2023-12-04T15:40:47;1.60;99.90
76567;DHT22;65428;53.194;6.132;2023-12-04T15:43:13;1.70;99.90
76567;DHT22;65428;53.194;6.132;2023-12-04T15:45:51;1.80;99.90
76567;DHT22;65428;53.194;6.132;2023-12-04T15:48:16;1.70;99.90
76567;DHT22;65428;53.194;6.132;2023-12-04T15:50:45;1.60;99.90